Hlavní strana
METAR-TAF:

METAR-TAF

Letiště :

Lampedusa, Itálie

zeměpisná šířka: 35-30N, zeměpisná délka: 012-36E, výška: 16 m

Aktuální stav počasí

Zpráva byla vytvořena před 37 minutami, v 14:50 UTC
Severoseverovýchodní vítr 7 kt
Teplota 15°C
Vlhkost vzduchu 77%
Tlak 1024 hPa
Viditelnost 10 km a více
slabý déšť

METAR: LICD 281450Z AUTO 03007KT 9999 -RA NCD 15/11 Q1024 RERA

Čas: 16:27 (15:27 UTC)

Předpověď počasí

Zpráva byla vytvořena před 4 hodinami a 27 minutami, v 11:00 UTC
Předpověď platná od 28 v 12 UTC do 01 v 12 UTC
Severoseverozápadní vítr 12 kt
Viditelnost 10 km a více
Žádná oblačnost pod 1500 m, nevyskytují se cumulonimby.
Změna
od 28 v 18 UTC do 28 v 20 UTC
vítr z různých směrů 5 kt
Změna
od 01 v 08 UTC do 01 v 10 UTC
Severozápadní vítr 12 kt

TAF: LICD 281100Z 2812/0112 34012KT CAVOK BECMG 2818/2820 VRB05KT BECMG 0108/0110 32012KT

Stav a předpovědi počasí z více než 4 000 letišť (zprávy METAR a TAF).

Červené a žluté tečky na mapě představují dostupné meteorologické stanice.

Když kurzor umístíte na tečku, zobrazí se název stanice.

Pak kliknutím zobrazíte stav a předpověď počasí.

Chcete-li změnit mapu, kliknutím na zelené tlačítko se znaménkem +mapu přiblížíte, kliknutím na zelené tlačítko se znaménkem – mapu oddálíte a kliknutím na zelené šipky přejdete na sousední mapy.


METAR-TAF: